Hamilton, Arkansas
Current Conditions -  °F | °C
As of 12:35 AM on Friday 19 Dec 2014 (Local Time) from KSGT Reporting Station
Overcast Overcast  
Wind Chill: 39°   Ceiling: 400
Heat Index: 43°   Visibility: NA
Dew Point: 39°   Wind: 6mph
Humidity: 87%   Direction: 20°NNE
Pressure: 30.24"   Gusts: NA
Location:  34.8142°N, 91.7503°W
Report Text: KSGT 190635Z 02005KT OVC004 06/04 A3024 RMK AO1
Loading
Personal Weather Stations






























Interactive Weather Map New forecast layout! Learn more

10-Day Weather Forecast

Advertisements
Track Severe Weather on mobile